Pittsfield, Massachusetts
Current Conditions -  °F | °C
As of 1:54 PM on Saturday 25 Oct 2014 (Local Time) from KPSF Reporting Station
Broken Clouds Broken Clouds  
Wind Chill: 56°   Ceiling: 2700
Heat Index: 56°   Visibility: 10mi
Dew Point: 45°   Wind: 9mph
Humidity: 67%   Direction: 290°WNW
Pressure: 29.68"   Gusts: NA
Location:  42.45°N, 73.25°W
Report Text: KPSF 251754Z AUTO 29008KT 10SM BKN027 13/07 A2968 RMK AO2 SLP043 T01330072 10133 20067 58029
Loading
Personal Weather Stations






























Interactive Weather Map
Tropical Storm Tracking
New forecast layout! Learn more

10-Day Weather Forecast

Advertisements
Track Severe Weather on mobile